Time;durP1;ratioP1;P1;durP2;ratioP2;P2;SDS_P1;SDS_P2;PMS_P1;PMS_P2;Temp;Humidity;BMP_temperature;BMP_pressure;BME280_temperature;BME280_humidity;BME280_pressure;Samples;Min_cycle;Max_cycle;Signal;HPM_P1;HPM_P2
2022/07/06 00:01:47;;;;;;;2.08;1.13;;;17.70;94.50;;;;;;5121196;27;20047;-74
2022/07/06 00:04:13;;;;;;;1.67;0.95;;;17.70;94.50;;;;;;5118800;27;20093;-74
2022/07/06 00:06:39;;;;;;;1.45;1.10;;;17.70;94.60;;;;;;5098879;27;20441;-73
2022/07/06 00:09:05;;;;;;;3.17;1.25;;;17.60;94.60;;;;;;5081334;27;20075;-74
2022/07/06 00:11:31;;;;;;;2.95;1.17;;;17.60;94.60;;;;;;5082410;27;20071;-74
2022/07/06 00:13:57;;;;;;;1.65;1.00;;;17.60;94.70;;;;;;5098270;27;20547;-73
2022/07/06 00:16:23;;;;;;;3.33;1.20;;;17.60;94.70;;;;;;5082502;27;20193;-74
2022/07/06 00:18:49;;;;;;;1.85;1.20;;;17.60;94.80;;;;;;5082634;28;20127;-74
2022/07/06 00:21:15;;;;;;;2.83;1.30;;;17.60;94.80;;;;;;5081011;27;20933;-74
2022/07/06 00:23:41;;;;;;;1.85;1.08;;;17.50;94.80;;;;;;5083111;27;20049;-73
2022/07/06 00:26:07;;;;;;;1.45;0.90;;;17.50;94.90;;;;;;5081337;27;20050;-73
2022/07/06 00:28:33;;;;;;;1.92;1.00;;;17.50;95.00;;;;;;5096294;27;20529;-74
2022/07/06 00:30:59;;;;;;;2.65;1.05;;;17.40;95.00;;;;;;5086375;27;20537;-73
2022/07/06 00:33:24;;;;;;;1.85;1.15;;;17.40;95.10;;;;;;5084992;27;20051;-74
2022/07/06 00:35:50;;;;;;;2.00;0.93;;;17.10;95.10;;;;;;5087194;27;20044;-73
2022/07/06 00:38:16;;;;;;;3.45;1.17;;;17.40;95.20;;;;;;5086142;27;20051;-74
2022/07/06 00:40:42;;;;;;;1.45;1.08;;;17.30;95.20;;;;;;5102262;27;20046;-73
2022/07/06 00:43:08;;;;;;;1.80;1.10;;;17.30;95.30;;;;;;5084924;27;20040;-74
2022/07/06 00:45:34;;;;;;;2.25;1.30;;;17.30;95.40;;;;;;5086704;27;20581;-73
2022/07/06 00:47:59;;;;;;;4.00;1.10;;;17.20;95.40;;;;;;5083829;27;20041;-74
2022/07/06 00:50:28;;;;;;;1.70;1.23;;;17.20;95.50;;;;;;5085323;27;20033;-73
2022/07/06 00:53:04;;;;;;;3.15;1.45;;;17.20;95.60;;;;;;5093348;27;20506;-73
2022/07/06 00:55:35;;;;;;;3.72;1.40;;;17.10;95.60;;;;;;5083290;27;20602;-72
2022/07/06 00:58:02;;;;;;;3.65;1.23;;;17.10;95.70;;;;;;5087681;27;20044;-73
2022/07/06 01:00:28;;;;;;;4.72;1.77;;;17.00;95.80;;;;;;5102508;27;20059;-74
2022/07/06 01:02:55;;;;;;;3.00;1.38;;;17.00;95.80;;;;;;5083113;27;20047;-73
2022/07/06 01:05:21;;;;;;;5.60;1.30;;;17.00;95.90;;;;;;5088634;27;20567;-73
2022/07/06 01:07:48;;;;;;;1.38;1.08;;;17.10;95.90;;;;;;5122502;27;20163;-73
2022/07/06 01:10:17;;;;;;;3.88;1.50;;;17.00;96.00;;;;;;5120491;27;20035;-74
2022/07/06 01:12:45;;;;;;;1.73;1.27;;;17.00;96.00;;;;;;5122170;27;20046;-74
2022/07/06 01:15:14;;;;;;;1.65;1.15;;;17.00;96.00;;;;;;5121658;27;20091;-73
2022/07/06 01:17:40;;;;;;;4.63;1.40;;;16.90;96.20;;;;;;5122420;27;20130;-73
2022/07/06 01:20:16;;;;;;;2.60;1.35;;;16.90;96.30;;;;;;5119882;27;20043;-73
2022/07/06 01:22:43;;;;;;;2.10;1.05;;;16.90;96.40;;;;;;5118174;27;20031;-73
2022/07/06 01:25:09;;;;;;;3.88;1.65;;;16.90;96.40;;;;;;5118321;27;20568;-73
2022/07/06 01:27:38;;;;;;;3.05;1.60;;;16.90;96.40;;;;;;5118950;27;20047;-73
2022/07/06 01:30:06;;;;;;;3.85;1.35;;;16.90;96.40;;;;;;5119744;27;20569;-74
2022/07/06 01:32:32;;;;;;;3.05;1.38;;;16.90;96.50;;;;;;5121300;27;20036;-73
2022/07/06 01:34:58;;;;;;;2.30;1.33;;;16.90;96.50;;;;;;5121273;27;20039;-74
2022/07/06 01:37:24;;;;;;;3.58;1.15;;;16.90;96.60;;;;;;5122284;27;20051;-74
2022/07/06 01:39:49;;;;;;;1.92;1.30;;;16.90;96.60;;;;;;5119587;27;20062;-74
2022/07/06 01:42:17;;;;;;;4.55;1.40;;;16.90;96.70;;;;;;5120661;27;20211;-73
2022/07/06 01:44:44;;;;;;;2.30;1.90;;;16.90;96.70;;;;;;5122111;27;20108;-73
2022/07/06 01:47:10;;;;;;;4.22;1.70;;;16.90;96.70;;;;;;5122719;27;20711;-73
2022/07/06 01:49:36;;;;;;;2.35;1.30;;;16.80;96.80;;;;;;5125656;27;20044;-73
2022/07/06 01:52:02;;;;;;;4.03;1.52;;;16.80;96.80;;;;;;5122581;27;20608;-75
2022/07/06 01:54:28;;;;;;;2.55;1.55;;;16.80;96.90;;;;;;5122789;27;20128;-74
2022/07/06 01:56:54;;;;;;;3.38;1.38;;;16.80;96.90;;;;;;5120566;27;20159;-74
2022/07/06 01:59:20;;;;;;;2.63;1.45;;;16.70;97.00;;;;;;5123586;27;20831;-74
2022/07/06 02:01:46;;;;;;;4.70;1.42;;;16.70;97.00;;;;;;5121497;27;20054;-75
2022/07/06 02:04:11;;;;;;;1.90;1.33;;;16.70;97.10;;;;;;5116916;27;20551;-73
2022/07/06 02:06:37;;;;;;;5.07;1.70;;;16.60;97.20;;;;;;5104625;27;20044;-74
2022/07/06 02:09:03;;;;;;;2.72;1.40;;;16.60;97.30;;;;;;5119334;27;20042;-74
2022/07/06 02:11:29;;;;;;;11.75;1.60;;;16.60;97.30;;;;;;5119392;27;20039;-73
2022/07/06 02:13:55;;;;;;;3.25;1.40;;;16.50;97.40;;;;;;5118265;27;20041;-74
2022/07/06 02:16:21;;;;;;;5.15;1.75;;;16.60;97.40;;;;;;5120336;27;20047;-73
2022/07/06 02:18:46;;;;;;;2.72;1.70;;;16.60;97.50;;;;;;5120320;27;20598;-74
2022/07/06 02:21:15;;;;;;;4.00;1.70;;;16.50;97.60;;;;;;5121151;27;20036;-73
2022/07/06 02:23:41;;;;;;;1.73;1.40;;;16.50;97.90;;;;;;5120457;27;20039;-73
2022/07/06 02:26:06;;;;;;;1.83;1.40;;;16.50;97.70;;;;;;5119255;27;20452;-73
2022/07/06 02:28:33;;;;;;;4.60;2.50;;;16.40;97.80;;;;;;5121580;27;20164;-74
2022/07/06 02:30:58;;;;;;;3.58;1.42;;;16.40;97.90;;;;;;5116776;27;20177;-73
2022/07/06 02:33:24;;;;;;;2.88;1.67;;;16.40;97.90;;;;;;5123028;27;20096;-74
2022/07/06 02:35:51;;;;;;;4.32;1.90;;;16.40;98.00;;;;;;5116830;27;20040;-74
2022/07/06 02:38:16;;;;;;;4.22;2.15;;;16.40;98.00;;;;;;5123797;27;20118;-73
2022/07/06 02:40:42;;;;;;;2.88;1.55;;;16.40;98.10;;;;;;5119331;27;20501;-73
2022/07/06 02:43:08;;;;;;;5.38;2.13;;;16.30;98.10;;;;;;5120147;27;20044;-73
2022/07/06 02:45:34;;;;;;;3.35;1.77;;;16.30;98.20;;;;;;5120286;27;20039;-74
2022/07/06 02:48:00;;;;;;;3.60;1.95;;;16.30;98.30;;;;;;5122159;27;20048;-73
2022/07/06 02:50:26;;;;;;;2.80;1.90;;;16.30;98.40;;;;;;5118450;27;20054;-73
2022/07/06 02:52:52;;;;;;;3.03;1.70;;;16.30;98.50;;;;;;5116247;27;20040;-73
2022/07/06 02:55:17;;;;;;;3.13;1.60;;;16.30;98.60;;;;;;5121562;27;20048;-73
2022/07/06 02:57:43;;;;;;;2.90;1.60;;;16.30;98.70;;;;;;5120470;27;20039;-74
2022/07/06 03:00:10;;;;;;;2.90;1.80;;;16.30;98.70;;;;;;5119173;27;20910;-73
2022/07/06 03:02:36;;;;;;;2.65;1.90;;;16.30;98.70;;;;;;5121417;27;20050;-74
2022/07/06 03:05:02;;;;;;;3.47;1.95;;;16.30;98.70;;;;;;5116007;27;20155;-74
2022/07/06 03:07:28;;;;;;;4.63;2.00;;;16.30;98.80;;;;;;5123527;27;20052;-74
2022/07/06 03:09:53;;;;;;;6.03;1.58;;;16.20;99.10;;;;;;5122948;27;20402;-74
2022/07/06 03:12:19;;;;;;;4.82;1.63;;;16.20;98.90;;;;;;5120300;27;20078;-73
2022/07/06 03:14:45;;;;;;;3.75;2.00;;;16.20;99.00;;;;;;5120233;27;20597;-74
2022/07/06 03:17:11;;;;;;;3.42;2.83;;;16.20;99.00;;;;;;5122017;27;20142;-73
2022/07/06 03:19:37;;;;;;;20.00;4.38;;;16.10;99.10;;;;;;5123735;27;20161;-74
2022/07/06 03:22:03;;;;;;;4.80;2.50;;;16.20;99.10;;;;;;5122933;27;20039;-73
2022/07/06 03:24:28;;;;;;;3.45;2.33;;;16.10;99.20;;;;;;5124626;27;20074;-74
2022/07/06 03:26:54;;;;;;;6.18;2.40;;;16.10;99.20;;;;;;5121786;27;20058;-74
2022/07/06 03:29:20;;;;;;;5.63;2.35;;;16.10;99.30;;;;;;5123356;27;20905;-74
2022/07/06 03:31:46;;;;;;;3.25;2.10;;;16.10;99.40;;;;;;5122375;27;20509;-73
2022/07/06 03:34:12;;;;;;;6.50;2.15;;;16.20;99.50;;;;;;5122890;27;20089;-73
2022/07/06 03:36:38;;;;;;;4.10;1.52;;;16.10;99.50;;;;;;5121668;27;20031;-73
2022/07/06 03:39:05;;;;;;;5.00;1.85;;;16.10;99.60;;;;;;5123451;27;20047;-75
2022/07/06 03:41:32;;;;;;;3.22;1.88;;;16.10;99.70;;;;;;5121229;27;20040;-74
2022/07/06 03:43:58;;;;;;;4.63;2.22;;;16.10;99.70;;;;;;5117353;27;20044;-74
2022/07/06 03:46:23;;;;;;;3.30;1.58;;;16.10;99.80;;;;;;5123767;27;20137;-74
2022/07/06 03:48:50;;;;;;;4.30;1.90;;;16.00;99.80;;;;;;5119282;27;20093;-74
2022/07/06 03:51:15;;;;;;;6.60;2.38;;;16.00;99.90;;;;;;5119790;27;20048;-74
2022/07/06 03:53:41;;;;;;;4.65;1.80;;;16.00;99.90;;;;;;5118812;27;20496;-75
2022/07/06 03:58:51;;;;;;;3.22;1.88;;;16.00;99.90;;;;;;5119103;27;20040;-75
2022/07/06 04:01:17;;;;;;;3.85;1.85;;;15.90;99.90;;;;;;5120781;27;20063;-74
2022/07/06 04:03:44;;;;;;;5.47;2.85;;;15.90;99.90;;;;;;5119189;27;20044;-74
2022/07/06 04:06:10;;;;;;;3.80;1.92;;;15.80;99.90;;;;;;5124215;27;20095;-74
2022/07/06 04:08:36;;;;;;;2.83;1.88;;;15.90;99.90;;;;;;5125041;27;20040;-74
2022/07/06 04:11:02;;;;;;;2.80;2.13;;;15.90;99.90;;;;;;5122972;27;20580;-74
2022/07/06 04:13:28;;;;;;;3.65;1.88;;;15.90;99.90;;;;;;5122704;27;20614;-74
2022/07/06 04:15:54;;;;;;;3.13;2.63;;;15.80;99.90;;;;;;5119232;27;20058;-74
2022/07/06 04:18:20;;;;;;;6.25;1.83;;;15.80;99.90;;;;;;5123754;27;20096;-74
2022/07/06 04:20:45;;;;;;;3.97;1.80;;;15.80;99.90;;;;;;5125472;27;20152;-74
2022/07/06 04:23:11;;;;;;;6.43;2.17;;;15.80;99.90;;;;;;5124545;27;20041;-75
2022/07/06 04:25:37;;;;;;;3.95;2.05;;;15.80;99.90;;;;;;5122415;27;20039;-74
2022/07/06 04:28:03;;;;;;;4.18;1.92;;;15.80;99.90;;;;;;5107269;27;20075;-74
2022/07/06 04:30:29;;;;;;;5.82;1.63;;;15.80;99.90;;;;;;5138983;27;20051;-75
2022/07/06 04:32:55;;;;;;;4.07;1.95;;;15.70;99.90;;;;;;5121797;27;20040;-74
2022/07/06 04:35:21;;;;;;;6.15;1.90;;;15.80;99.90;;;;;;5121218;27;20046;-74
2022/07/06 04:37:47;;;;;;;3.58;1.70;;;15.70;99.90;;;;;;5122362;27;20539;-74
2022/07/06 04:40:14;;;;;;;3.20;1.80;;;15.70;99.90;;;;;;5120089;27;20429;-75
2022/07/06 04:42:40;;;;;;;6.15;2.47;;;15.70;99.90;;;;;;5137842;27;20039;-74
2022/07/06 04:45:07;;;;;;;3.22;1.88;;;15.70;99.90;;;;;;5121062;27;20043;-74
2022/07/06 04:47:32;;;;;;;5.43;2.20;;;15.70;99.90;;;;;;5119597;27;20098;-73
2022/07/06 04:49:58;;;;;;;3.38;2.55;;;15.70;99.90;;;;;;5117640;27;20070;-73
2022/07/06 04:52:24;;;;;;;2.47;1.70;;;15.80;99.90;;;;;;5120971;27;20040;-73
2022/07/06 04:54:50;;;;;;;4.88;2.00;;;15.70;99.90;;;;;;5123681;27;20035;-74
2022/07/06 04:57:16;;;;;;;5.57;1.92;;;15.70;99.90;;;;;;5117288;27;20035;-74
2022/07/06 04:59:42;;;;;;;3.97;2.35;;;15.70;99.90;;;;;;5122489;27;20406;-75
2022/07/06 05:02:07;;;;;;;6.95;2.00;;;15.70;99.90;;;;;;5121456;27;20040;-75
2022/07/06 05:04:33;;;;;;;5.40;2.15;;;15.70;99.90;;;;;;5117364;27;20044;-75
2022/07/06 05:06:59;;;;;;;7.30;3.33;;;15.80;99.90;;;;;;5122556;27;20051;-74
2022/07/06 05:09:25;;;;;;;5.53;2.45;;;15.70;99.90;;;;;;5119795;27;20039;-75
2022/07/06 05:11:51;;;;;;;2.70;1.80;;;15.80;99.90;;;;;;5122098;27;20051;-74
2022/07/06 05:14:17;;;;;;;4.10;1.92;;;15.70;99.90;;;;;;5121992;27;20039;-74
2022/07/06 05:16:43;;;;;;;4.88;1.90;;;15.70;99.90;;;;;;5122556;27;20956;-74
2022/07/06 05:19:08;;;;;;;6.70;3.10;;;15.70;99.90;;;;;;5120172;27;20043;-74
2022/07/06 05:21:34;;;;;;;6.47;2.17;;;15.70;99.90;;;;;;5124114;27;20031;-75
2022/07/06 05:24:02;;;;;;;7.20;3.72;;;15.80;99.90;;;;;;5120313;27;20520;-74
2022/07/06 05:26:28;;;;;;;4.28;1.80;;;15.80;99.90;;;;;;5117989;27;20035;-77
2022/07/06 05:28:54;;;;;;;3.17;2.05;;;15.70;99.90;;;;;;5122869;27;20409;-76
2022/07/06 05:31:20;;;;;;;5.35;2.30;;;15.70;99.90;;;;;;5124089;27;20059;-76
2022/07/06 05:33:45;;;;;;;5.63;2.60;;;15.80;99.90;;;;;;5118041;27;20204;-76
2022/07/06 05:36:11;;;;;;;5.30;2.15;;;15.80;99.90;;;;;;5118175;27;20425;-78
2022/07/06 05:38:37;;;;;;;4.65;2.25;;;15.80;99.90;;;;;;5116382;27;20424;-74
2022/07/06 05:41:03;;;;;;;5.03;2.00;;;15.80;99.90;;;;;;5114795;27;20420;-74
2022/07/06 05:43:28;;;;;;;6.93;2.40;;;15.90;99.90;;;;;;5115783;27;20129;-72
2022/07/06 05:45:54;;;;;;;4.72;2.35;;;15.90;99.90;;;;;;5118121;27;20490;-73
2022/07/06 05:51:04;;;;;;;5.15;2.55;;;16.00;99.90;;;;;;5121646;27;20047;-73
2022/07/06 05:53:30;;;;;;;4.93;1.95;;;16.00;99.90;;;;;;5121335;27;20036;-73
2022/07/06 05:55:56;;;;;;;4.47;2.40;;;16.10;99.90;;;;;;5120451;27;20040;-73
2022/07/06 05:58:24;;;;;;;6.85;2.30;;;16.00;99.90;;;;;;5122720;27;20542;-81
2022/07/06 06:00:50;;;;;;;4.00;2.33;;;16.10;99.90;;;;;;5123171;27;20572;-73
2022/07/06 06:03:15;;;;;;;9.23;3.10;;;16.10;99.90;;;;;;5118221;27;20051;-74
2022/07/06 06:05:41;;;;;;;5.68;3.50;;;16.10;99.90;;;;;;5120165;27;22125;-73
2022/07/06 06:08:07;;;;;;;7.70;2.50;;;16.10;99.90;;;;;;5125507;27;20051;-73
2022/07/06 06:10:33;;;;;;;7.05;2.40;;;16.20;99.90;;;;;;5122563;27;20059;-73
2022/07/06 06:12:59;;;;;;;3.50;2.10;;;16.20;99.90;;;;;;5121234;27;20112;-73
2022/07/06 06:15:24;;;;;;;3.97;2.50;;;16.20;99.90;;;;;;5119999;27;20122;-73
2022/07/06 06:17:50;;;;;;;5.47;2.60;;;16.20;99.90;;;;;;5121642;27;20108;-73
2022/07/06 06:20:16;;;;;;;9.07;2.67;;;16.30;99.90;;;;;;5122413;27;20071;-75
2022/07/06 06:22:46;;;;;;;6.82;2.30;;;16.30;99.90;;;;;;5121442;27;20040;-74
2022/07/06 06:25:13;;;;;;;5.93;2.42;;;16.30;99.90;;;;;;5121186;27;20046;-74
2022/07/06 06:27:39;;;;;;;8.02;2.17;;;16.30;99.90;;;;;;5116636;27;20043;-74
2022/07/06 06:30:05;;;;;;;5.90;3.05;;;16.40;99.90;;;;;;5122313;27;20047;-75
2022/07/06 06:32:31;;;;;;;5.88;2.45;;;16.40;99.90;;;;;;5119726;27;20039;-74
2022/07/06 06:34:56;;;;;;;10.32;2.80;;;16.40;99.90;;;;;;5121962;27;20058;-74
2022/07/06 06:37:22;;;;;;;4.97;2.40;;;16.50;99.90;;;;;;5118629;27;20504;-74
2022/07/06 06:39:48;;;;;;;4.15;2.30;;;16.50;99.90;;;;;;5117264;27;20154;-74
2022/07/06 06:42:14;;;;;;;3.83;2.20;;;16.50;99.90;;;;;;5116642;27;20475;-74
2022/07/06 06:44:39;;;;;;;8.80;2.50;;;16.60;99.90;;;;;;5120140;27;20043;-74
2022/07/06 06:47:05;;;;;;;2.70;1.70;;;16.60;99.90;;;;;;5120828;27;20043;-74
2022/07/06 06:49:31;;;;;;;5.32;2.50;;;16.60;99.90;;;;;;5121063;27;20311;-74
2022/07/06 06:51:56;;;;;;;4.60;1.80;;;16.60;99.90;;;;;;5121306;27;20067;-73
2022/07/06 06:54:22;;;;;;;4.35;1.70;;;16.70;99.90;;;;;;5126143;27;20500;-74
2022/07/06 06:56:48;;;;;;;5.22;2.38;;;16.70;99.90;;;;;;5123796;27;20086;-74
2022/07/06 06:59:14;;;;;;;5.22;1.92;;;16.70;99.90;;;;;;5125550;27;20050;-74
2022/07/06 07:01:39;;;;;;;3.15;1.60;;;16.70;99.90;;;;;;5126736;27;20039;-74
2022/07/06 07:04:06;;;;;;;7.30;3.00;;;16.80;99.90;;;;;;5124786;27;20035;-74
2022/07/06 07:06:32;;;;;;;3.72;2.33;;;16.70;99.90;;;;;;5126073;27;20055;-74
2022/07/06 07:08:58;;;;;;;5.00;1.80;;;16.80;99.90;;;;;;5125863;27;20072;-74
2022/07/06 07:11:24;;;;;;;9.10;2.35;;;16.80;99.90;;;;;;5125392;27;20127;-74
2022/07/06 07:13:50;;;;;;;3.78;1.70;;;16.80;99.90;;;;;;5123349;27;20039;-74
2022/07/06 07:16:16;;;;;;;4.18;2.15;;;16.90;99.90;;;;;;5123880;27;20149;-74
2022/07/06 07:18:42;;;;;;;5.38;2.03;;;16.90;99.90;;;;;;5124100;27;20372;-74
2022/07/06 07:21:07;;;;;;;6.35;2.53;;;16.90;99.90;;;;;;5124358;27;20428;-74
2022/07/06 07:23:33;;;;;;;3.15;1.60;;;16.90;99.90;;;;;;5123958;27;20089;-74
2022/07/06 07:25:59;;;;;;;4.65;2.08;;;16.90;99.90;;;;;;5122929;27;20043;-74
2022/07/06 07:28:25;;;;;;;5.47;1.85;;;17.00;99.90;;;;;;5107721;27;20059;-74
2022/07/06 07:30:50;;;;;;;4.90;1.70;;;17.00;99.90;;;;;;5123647;27;20035;-74
2022/07/06 07:33:16;;;;;;;3.97;1.70;;;17.00;99.90;;;;;;5122263;27;20047;-74
2022/07/06 07:35:42;;;;;;;3.45;1.77;;;17.10;99.90;;;;;;5125037;27;20138;-74
2022/07/06 07:38:08;;;;;;;2.92;1.70;;;17.10;99.90;;;;;;5123690;27;20120;-74
2022/07/06 07:40:35;;;;;;;3.08;1.60;;;17.10;99.90;;;;;;5123828;27;20036;-74
2022/07/06 07:43:01;;;;;;;3.42;1.70;;;17.10;99.90;;;;;;5123947;27;20054;-74
2022/07/06 07:45:27;;;;;;;3.92;1.50;;;17.20;99.90;;;;;;5122796;27;20062;-74
2022/07/06 07:47:53;;;;;;;6.55;1.90;;;17.20;99.90;;;;;;5124518;27;20047;-74
2022/07/06 07:50:19;;;;;;;6.50;2.03;;;17.30;99.90;;;;;;5121842;27;20040;-74
2022/07/06 07:52:44;;;;;;;5.30;1.80;;;17.20;99.90;;;;;;5124673;27;20071;-74
2022/07/06 07:55:11;;;;;;;3.03;1.52;;;17.30;99.90;;;;;;5122751;27;20036;-74
2022/07/06 07:57:37;;;;;;;2.92;1.73;;;17.30;99.90;;;;;;5124366;27;20055;-74
2022/07/06 08:00:04;;;;;;;6.45;2.28;;;17.40;99.90;;;;;;5106105;27;20036;-74
2022/07/06 08:02:30;;;;;;;2.75;1.80;;;17.40;99.90;;;;;;5124674;27;20049;-74
2022/07/06 08:04:55;;;;;;;3.70;1.50;;;17.50;99.90;;;;;;5125092;27;20044;-74
2022/07/06 08:07:21;;;;;;;8.38;2.65;;;17.50;99.90;;;;;;5123819;27;20055;-74
2022/07/06 08:09:47;;;;;;;3.72;1.80;;;17.50;99.90;;;;;;5124780;27;20572;-74
2022/07/06 08:12:13;;;;;;;7.18;2.42;;;17.50;99.90;;;;;;5124055;27;20044;-74
2022/07/06 08:14:39;;;;;;;4.40;1.70;;;17.50;99.90;;;;;;5122687;27;20051;-74
2022/07/06 08:17:04;;;;;;;5.30;1.58;;;17.60;99.90;;;;;;5123364;27;20055;-74
2022/07/06 08:19:30;;;;;;;4.97;1.98;;;17.60;99.90;;;;;;5122615;27;20043;-74
2022/07/06 08:21:57;;;;;;;3.78;2.05;;;17.60;99.90;;;;;;5121879;27;20787;-74
2022/07/06 08:24:23;;;;;;;4.35;1.92;;;17.70;99.90;;;;;;5114848;27;20047;-73
2022/07/06 08:26:49;;;;;;;2.75;2.00;;;17.70;99.90;;;;;;5118494;27;20523;-74
2022/07/06 08:29:14;;;;;;;4.32;1.80;;;17.70;99.90;;;;;;5119609;27;20054;-74
2022/07/06 08:31:40;;;;;;;4.28;1.85;;;17.70;99.90;;;;;;5119850;27;20150;-74
2022/07/06 08:34:06;;;;;;;4.13;1.60;;;17.80;99.90;;;;;;5113889;27;20479;-74
2022/07/06 08:36:32;;;;;;;4.18;1.60;;;17.80;99.90;;;;;;5119766;27;20124;-73
2022/07/06 08:38:58;;;;;;;6.85;1.70;;;17.80;99.90;;;;;;5121380;27;20035;-73
2022/07/06 08:41:28;;;;;;;4.03;3.13;;;17.90;99.90;;;;;;5123317;27;20130;-74
2022/07/06 08:43:54;;;;;;;2.30;1.50;;;17.90;99.90;;;;;;5120384;27;20046;-74
2022/07/06 08:46:21;;;;;;;7.28;1.85;;;18.00;99.90;;;;;;5116364;27;20043;-73
2022/07/06 08:48:48;;;;;;;4.47;2.17;;;18.00;99.90;;;;;;5118488;27;20526;-74
2022/07/06 08:51:14;;;;;;;3.00;1.40;;;18.10;99.90;;;;;;5120721;27;20439;-74
2022/07/06 08:53:45;;;;;;;1.83;1.20;;;18.10;99.90;;;;;;5122573;27;20100;-73
2022/07/06 08:56:11;;;;;;;2.75;1.60;;;18.20;99.90;;;;;;5124908;27;20058;-72
2022/07/06 08:58:40;;;;;;;3.53;2.28;;;18.20;99.90;;;;;;5124337;27;20040;-73
2022/07/06 09:01:08;;;;;;;5.53;1.92;;;18.20;99.90;;;;;;5122754;27;20030;-73
2022/07/06 09:03:35;;;;;;;2.55;1.38;;;18.20;99.90;;;;;;5124654;27;20051;-73
2022/07/06 09:06:02;;;;;;;5.22;1.83;;;18.30;99.90;;;;;;5124500;27;20521;-81
2022/07/06 09:08:31;;;;;;;3.25;1.52;;;18.30;99.90;;;;;;5125419;27;20093;-73
2022/07/06 09:10:57;;;;;;;4.20;1.40;;;18.40;99.90;;;;;;5126871;27;20142;-72
2022/07/06 09:13:22;;;;;;;2.97;1.58;;;18.40;99.90;;;;;;5127673;27;20413;-73
2022/07/06 09:15:48;;;;;;;2.22;1.63;;;18.40;99.90;;;;;;5126514;27;20975;-73
2022/07/06 09:18:15;;;;;;;1.92;1.15;;;18.40;99.90;;;;;;5127282;27;20043;-73
2022/07/06 09:20:41;;;;;;;2.78;1.60;;;18.50;99.90;;;;;;5127662;27;20051;-73
2022/07/06 09:23:07;;;;;;;4.15;1.88;;;18.60;99.90;;;;;;5126800;27;20134;-73
2022/07/06 09:25:35;;;;;;;3.55;1.50;;;18.60;99.90;;;;;;5126667;27;20083;-73
2022/07/06 09:28:01;;;;;;;4.63;1.83;;;18.70;99.90;;;;;;5126553;27;20089;-73
2022/07/06 09:30:28;;;;;;;3.30;1.23;;;18.70;99.90;;;;;;5127343;27;20056;-73
2022/07/06 09:32:58;;;;;;;4.05;1.58;;;18.80;99.90;;;;;;5126097;27;20040;-73
2022/07/06 09:35:27;;;;;;;1.95;1.25;;;18.80;99.90;;;;;;5125026;27;20130;-73
2022/07/06 09:38:12;;;;;;;4.10;1.58;;;18.90;99.90;;;;;;5122665;27;20045;-73
2022/07/06 09:40:40;;;;;;;4.13;1.67;;;19.00;99.90;;;;;;5126014;27;20119;-73
2022/07/06 09:43:12;;;;;;;3.80;1.38;;;19.00;99.90;;;;;;5108584;27;20040;-73
2022/07/06 09:45:38;;;;;;;;;;;19.00;99.90;;;;;;5126541;27;20044;-73
2022/07/06 09:48:21;;;;;;;2.90;1.80;;;19.10;99.90;;;;;;5125024;27;19977;-73
2022/07/06 09:50:50;;;;;;;3.25;1.52;;;19.10;99.90;;;;;;5126222;27;20118;-73
2022/07/06 09:53:17;;;;;;;5.00;1.80;;;19.10;99.90;;;;;;5123185;27;20054;-73
2022/07/06 09:55:52;;;;;;;5.65;1.92;;;19.10;99.90;;;;;;5124835;27;20040;-73
2022/07/06 09:58:18;;;;;;;3.58;1.50;;;19.20;99.90;;;;;;5125486;27;20043;-73
2022/07/06 10:00:46;;;;;;;3.20;1.85;;;19.20;99.90;;;;;;5124133;27;20543;-74
2022/07/06 10:03:12;;;;;;;2.75;1.98;;;19.30;99.90;;;;;;5123862;27;20513;-73
2022/07/06 10:05:40;;;;;;;1.88;1.30;;;19.30;99.90;;;;;;5124877;27;20044;-73
2022/07/06 10:08:09;;;;;;;5.20;1.63;;;19.40;99.90;;;;;;5125967;27;20589;-73
2022/07/06 10:10:36;;;;;;;4.28;1.63;;;19.50;99.90;;;;;;5122636;27;20043;-73
2022/07/06 10:13:03;;;;;;;4.97;1.58;;;19.60;99.90;;;;;;5123442;27;20036;-73
2022/07/06 10:15:32;;;;;;;2.83;1.63;;;19.60;99.70;;;;;;5123130;27;20031;-73
2022/07/06 10:18:03;;;;;;;3.45;1.60;;;19.80;99.30;;;;;;5127003;27;20488;-73
2022/07/06 10:20:31;;;;;;;3.28;1.40;;;19.90;99.00;;;;;;5124484;27;20039;-73
2022/07/06 10:22:59;;;;;;;6.38;2.95;;;19.90;98.60;;;;;;5124756;27;20054;-73
2022/07/06 10:25:26;;;;;;;4.10;1.58;;;19.70;98.50;;;;;;5123805;27;20755;-73
2022/07/06 10:27:52;;;;;;;4.13;1.40;;;19.70;98.00;;;;;;5126524;27;20104;-73
2022/07/06 10:30:19;;;;;;;2.88;1.20;;;19.70;97.90;;;;;;5124706;27;20448;-73
2022/07/06 10:32:48;;;;;;;3.38;1.85;;;19.80;97.80;;;;;;5106969;27;20043;-73
2022/07/06 10:35:14;;;;;;;2.22;1.30;;;19.80;97.40;;;;;;5124328;27;20040;-74
2022/07/06 10:37:41;;;;;;;3.88;2.00;;;19.80;97.30;;;;;;5123891;27;20186;-73
2022/07/06 10:43:00;;;;;;;4.40;2.58;;;19.80;97.00;;;;;;5123928;27;20040;-73
2022/07/06 10:45:29;;;;;;;2.88;1.35;;;19.90;96.40;;;;;;5124521;27;20130;-73
2022/07/06 10:48:15;;;;;;;5.40;1.90;;;19.90;96.30;;;;;;5108133;27;20047;-73
2022/07/06 10:50:54;;;;;;;2.72;1.60;;;19.90;96.20;;;;;;5125154;27;20042;-73
2022/07/06 10:53:25;;;;;;;3.20;1.48;;;19.90;96.20;;;;;;5122063;27;20043;-73
2022/07/06 10:55:56;;;;;;;2.88;1.60;;;19.90;96.30;;;;;;5123999;27;20048;-74
2022/07/06 10:58:46;;;;;;;8.45;2.28;;;20.00;96.30;;;;;;5124196;27;20166;-73
2022/07/06 11:01:12;;;;;;;3.30;2.08;;;20.00;96.20;;;;;;5125153;27;20058;-73
2022/07/06 11:03:44;;;;;;;5.82;1.83;;;20.00;96.20;;;;;;5124092;27;20382;-74
2022/07/06 11:06:18;;;;;;;3.33;1.75;;;20.00;95.90;;;;;;5125376;27;20055;-73
2022/07/06 11:08:56;;;;;;;3.55;2.45;;;20.10;95.90;;;;;;5124317;27;20114;-73
2022/07/06 11:11:24;;;;;;;3.97;1.80;;;20.30;95.80;;;;;;5126317;27;20043;-74
2022/07/06 11:14:13;;;;;;;3.80;2.50;;;20.30;95.50;;;;;;5122322;27;20098;-74
2022/07/06 11:17:04;;;;;;;3.95;1.92;;;20.40;95.50;;;;;;5106985;27;20071;-73
2022/07/06 11:19:31;;;;;;;5.63;2.10;;;20.40;95.70;;;;;;5122969;27;20084;-73
2022/07/06 11:22:08;;;;;;;5.13;2.83;;;20.50;95.40;;;;;;5124766;27;20035;-73
2022/07/06 11:24:36;;;;;;;4.43;2.40;;;20.60;95.40;;;;;;5122046;27;20515;-74
2022/07/06 11:27:02;;;;;;;4.63;2.13;;;20.80;95.40;;;;;;5124574;27;20483;-74
2022/07/06 11:29:29;;;;;;;4.10;2.28;;;20.90;95.20;;;;;;5122753;27;20046;-74
2022/07/06 11:32:00;;;;;;;5.70;2.72;;;20.90;94.90;;;;;;5122872;27;20039;-74
2022/07/06 11:34:29;;;;;;;5.47;2.17;;;20.80;94.60;;;;;;5121330;27;20048;-74
2022/07/06 11:37:07;;;;;;;5.20;1.98;;;20.80;94.60;;;;;;5124665;27;20048;-74
2022/07/06 11:39:35;;;;;;;4.80;2.60;;;20.90;94.60;;;;;;5122489;27;20050;-74
2022/07/06 11:42:04;;;;;;;4.55;2.10;;;21.00;94.50;;;;;;5124256;27;20098;-73
2022/07/06 11:44:30;;;;;;;6.07;2.67;;;21.10;94.20;;;;;;5124355;27;20406;-74
2022/07/06 11:47:01;;;;;;;4.53;2.17;;;21.20;94.00;;;;;;5121604;27;20157;-73
2022/07/06 11:49:27;;;;;;;3.60;2.10;;;21.30;93.80;;;;;;5107555;27;20050;-74
2022/07/06 11:51:53;;;;;;;5.65;3.03;;;21.40;93.60;;;;;;5122544;27;20044;-74
2022/07/06 11:54:21;;;;;;;4.20;2.55;;;21.50;93.80;;;;;;5124571;27;20420;-74
2022/07/06 11:56:51;;;;;;;3.40;2.20;;;21.60;93.80;;;;;;5122354;27;20042;-74
2022/07/06 11:59:24;;;;;;;4.88;2.42;;;21.60;93.70;;;;;;5121227;27;20040;-74
2022/07/06 12:01:57;;;;;;;2.72;1.98;;;21.50;93.40;;;;;;5123314;27;20100;-74
2022/07/06 12:04:24;;;;;;;3.75;1.98;;;21.50;93.20;;;;;;5123378;27;20410;-74
2022/07/06 12:06:50;;;;;;;5.80;2.60;;;21.40;93.10;;;;;;5124019;27;20048;-74
2022/07/06 12:09:16;;;;;;;4.93;2.08;;;21.40;93.20;;;;;;5122532;27;20031;-74
2022/07/06 12:11:46;;;;;;;4.50;1.73;;;21.40;93.00;;;;;;5123327;27;20044;-74
2022/07/06 12:14:17;;;;;;;9.48;2.45;;;21.40;93.20;;;;;;5123621;27;20043;-74
2022/07/06 12:16:44;;;;;;;2.95;1.60;;;21.50;93.00;;;;;;5122988;27;20059;-74
2022/07/06 12:19:11;;;;;;;3.90;2.63;;;21.60;92.20;;;;;;5121807;27;20134;-74
2022/07/06 12:21:52;;;;;;;5.70;2.28;;;21.70;92.00;;;;;;5121405;27;20465;-74
2022/07/06 12:24:26;;;;;;;4.80;2.00;;;21.70;92.00;;;;;;5122831;27;20089;-73
2022/07/06 12:26:53;;;;;;;3.88;1.92;;;21.80;91.70;;;;;;5127560;27;20504;-73
2022/07/06 12:29:19;;;;;;;3.55;1.92;;;21.80;91.80;;;;;;5124457;27;20070;-74
2022/07/06 12:31:52;;;;;;;4.22;2.35;;;21.90;91.90;;;;;;5121230;27;20093;-74
2022/07/06 12:34:23;;;;;;;3.90;2.35;;;22.00;91.70;;;;;;5122621;27;20568;-74
2022/07/06 12:36:56;;;;;;;3.33;2.13;;;22.10;91.60;;;;;;5122944;27;20032;-74
2022/07/06 12:39:27;;;;;;;4.50;2.20;;;22.20;91.70;;;;;;5127021;27;20068;-74
2022/07/06 12:42:03;;;;;;;3.95;2.30;;;22.30;91.80;;;;;;5124341;27;20047;-73
2022/07/06 12:44:29;;;;;;;3.90;2.58;;;22.50;91.40;;;;;;5123243;27;20848;-74
2022/07/06 12:47:07;;;;;;;7.55;2.60;;;22.50;91.00;;;;;;5123741;27;20594;-74
2022/07/06 12:49:33;;;;;;;4.65;2.85;;;22.50;90.60;;;;;;5126759;27;20044;-74
2022/07/06 12:52:08;;;;;;;4.03;2.42;;;22.50;90.60;;;;;;5121695;27;20035;-73
2022/07/06 12:54:52;;;;;;;5.15;2.85;;;22.40;90.40;;;;;;5128321;27;20107;-73
2022/07/06 12:57:28;;;;;;;5.93;2.55;;;22.40;90.40;;;;;;5126964;27;20043;-73